createdAt,value
2017-11-24T00:01:51.472Z,96722.22
2017-11-24T00:04:17.575Z,96716.58
2017-11-24T00:06:43.831Z,96718.26
2017-11-24T00:09:09.953Z,96718.00
2017-11-24T00:11:36.079Z,96714.59
2017-11-24T00:14:02.534Z,96710.47
2017-11-24T00:16:28.702Z,96716.01
2017-11-24T00:18:54.854Z,96712.58
2017-11-24T00:21:20.969Z,96714.59
2017-11-24T00:23:47.088Z,96718.30
2017-11-24T00:26:13.253Z,96721.87
2017-11-24T00:28:39.416Z,96718.58
2017-11-24T00:31:05.565Z,96717.09
2017-11-24T00:33:31.999Z,96720.80
2017-11-24T00:35:58.102Z,96721.52
2017-11-24T00:38:24.257Z,96716.38
2017-11-24T00:40:50.440Z,96721.23
2017-11-24T00:43:16.536Z,96726.71
2017-11-24T00:45:42.692Z,96723.56
2017-11-24T00:48:08.744Z,96714.89
2017-11-24T00:50:34.837Z,96721.66
2017-11-24T00:53:00.981Z,96712.47
2017-11-24T00:55:27.115Z,96722.38
2017-11-24T00:57:53.249Z,96723.55
2017-11-24T01:00:19.403Z,96718.03
2017-11-24T01:02:45.492Z,96720.21
2017-11-24T01:05:11.638Z,96715.73
2017-11-24T01:07:37.993Z,96725.51
2017-11-24T01:10:04.124Z,96718.80
2017-11-24T01:12:30.243Z,96725.20
2017-11-24T01:14:56.413Z,96720.22
2017-11-24T01:17:22.585Z,96727.62
2017-11-24T01:19:48.685Z,96725.17
2017-11-24T01:22:14.902Z,96720.26
2017-11-24T01:24:41.009Z,96714.77
2017-11-24T01:27:07.208Z,96703.53
2017-11-24T01:29:33.346Z,96711.07
2017-11-24T01:31:59.502Z,96697.97
2017-11-24T01:34:25.710Z,96696.62
2017-11-24T01:36:51.882Z,96689.91
2017-11-24T01:39:18.008Z,96694.40
2017-11-24T01:41:44.557Z,96689.76
2017-11-24T01:44:10.698Z,96694.40
2017-11-24T01:46:36.770Z,96695.92
2017-11-24T01:49:02.953Z,96694.19
2017-11-24T01:51:29.101Z,96699.39
2017-11-24T01:53:55.531Z,96696.38
2017-11-24T01:56:21.649Z,96698.21
2017-11-24T01:58:47.736Z,96702.50
2017-11-24T02:01:13.845Z,96705.90
2017-11-24T02:03:40.213Z,96716.06
2017-11-24T02:06:06.645Z,96710.43
2017-11-24T02:08:32.770Z,96707.34
2017-11-24T02:10:58.857Z,96700.66
2017-11-24T02:13:24.972Z,96701.43
2017-11-24T02:15:51.122Z,96698.61
2017-11-24T02:18:17.603Z,96692.11
2017-11-24T02:20:43.742Z,96693.91
2017-11-24T02:23:09.848Z,96689.80
2017-11-24T02:25:36.277Z,96683.08
2017-11-24T02:28:02.414Z,96687.26
2017-11-24T02:30:28.509Z,96685.64
2017-11-24T02:32:54.970Z,96687.84
2017-11-24T02:35:21.066Z,96689.27
2017-11-24T02:37:47.148Z,96689.38
2017-11-24T02:40:13.245Z,96691.65
2017-11-24T02:42:39.312Z,96680.97
2017-11-24T02:45:05.373Z,96684.86
2017-11-24T02:47:31.635Z,96680.39
2017-11-24T02:49:57.773Z,96683.88
2017-11-24T02:52:24.202Z,96683.09
2017-11-24T02:54:50.291Z,96681.95
2017-11-24T02:57:16.336Z,96685.71
2017-11-24T02:59:42.454Z,96678.38
2017-11-24T03:02:08.617Z,96685.01
2017-11-24T03:04:34.733Z,96678.60
2017-11-24T03:07:00.851Z,96674.39
2017-11-24T03:09:26.909Z,96676.66
2017-11-24T03:11:53.054Z,96678.43
2017-11-24T03:14:19.141Z,96679.24
2017-11-24T03:16:45.282Z,96681.76
2017-11-24T03:19:11.438Z,96678.25
2017-11-24T03:21:37.568Z,96678.14
2017-11-24T03:24:03.737Z,96675.80
2017-11-24T03:26:29.857Z,96682.62
2017-11-24T03:28:56.001Z,96681.55
2017-11-24T03:31:22.090Z,96696.13
2017-11-24T03:33:48.211Z,96692.73
2017-11-24T03:36:14.705Z,96689.61
2017-11-24T03:38:41.134Z,96682.47
2017-11-24T03:41:07.280Z,96679.95
2017-11-24T03:43:33.413Z,96670.80
2017-11-24T03:45:59.571Z,96676.31
2017-11-24T03:48:25.651Z,96675.15
2017-11-24T03:50:51.821Z,96683.27
2017-11-24T03:53:17.930Z,96683.86
2017-11-24T03:55:44.023Z,96683.19
2017-11-24T03:58:10.137Z,96681.53
2017-11-24T04:00:36.254Z,96679.52
2017-11-24T04:03:02.345Z,96675.63
2017-11-24T04:05:28.496Z,96668.30
2017-11-24T04:07:54.608Z,96670.41
2017-11-24T04:10:20.746Z,96670.19
2017-11-24T04:12:46.856Z,96671.59
2017-11-24T04:15:13.022Z,96670.91
2017-11-24T04:17:39.179Z,96673.70
2017-11-24T04:20:05.315Z,96676.03
2017-11-24T04:22:31.388Z,96664.21
2017-11-24T04:24:57.501Z,96665.06
2017-11-24T04:27:23.661Z,96673.22
2017-11-24T04:29:49.794Z,96685.33
2017-11-24T04:32:15.916Z,96684.94
2017-11-24T04:34:42.041Z,96681.23
2017-11-24T04:37:08.189Z,96676.89
2017-11-24T04:39:34.281Z,96671.78
2017-11-24T04:42:00.341Z,96674.56
2017-11-24T04:44:26.502Z,96673.04
2017-11-24T04:46:52.610Z,96666.64
2017-11-24T04:49:18.747Z,96664.25
2017-11-24T04:51:44.838Z,96665.97
2017-11-24T04:54:10.957Z,96657.45
2017-11-24T04:56:37.050Z,96662.27
2017-11-24T04:59:03.130Z,96662.82
2017-11-24T05:01:29.266Z,96661.38
2017-11-24T05:03:55.409Z,96664.38
2017-11-24T05:06:21.505Z,96668.45
2017-11-24T05:08:47.578Z,96655.37
2017-11-24T05:11:13.827Z,96651.83
2017-11-24T05:13:39.968Z,96650.22
2017-11-24T05:16:06.089Z,96658.89
2017-11-24T05:18:32.306Z,96653.49
2017-11-24T05:20:58.505Z,96662.77
2017-11-24T05:23:25.399Z,96656.42
2017-11-24T05:25:51.540Z,96656.03
2017-11-24T05:28:17.645Z,96667.75
2017-11-24T05:30:43.766Z,96665.17
2017-11-24T05:33:09.939Z,96677.34
2017-11-24T05:35:36.050Z,96669.80
2017-11-24T05:38:02.169Z,96675.86
2017-11-24T05:40:28.308Z,96671.27
2017-11-24T05:42:54.409Z,96666.28
2017-11-24T05:45:20.534Z,96663.17
2017-11-24T05:47:46.685Z,96662.55
2017-11-24T05:50:12.813Z,96670.47
2017-11-24T05:52:38.891Z,96660.25
2017-11-24T05:55:05.037Z,96654.62
2017-11-24T05:57:31.145Z,96648.98
2017-11-24T05:59:57.242Z,96654.87
2017-11-24T06:02:23.530Z,96660.39
2017-11-24T06:04:49.749Z,96660.97
2017-11-24T06:07:15.921Z,96654.91
2017-11-24T06:09:43.064Z,96660.33
2017-11-24T06:12:09.889Z,96656.33
2017-11-24T06:14:36.026Z,96649.40
2017-11-24T06:17:02.121Z,96651.73
2017-11-24T06:19:28.178Z,96659.05
2017-11-24T06:21:54.337Z,96661.57
2017-11-24T06:24:20.734Z,96658.32
2017-11-24T06:26:46.842Z,96659.17
2017-11-24T06:29:12.966Z,96655.06
2017-11-24T06:31:39.082Z,96663.56
2017-11-24T06:34:05.209Z,96657.05
2017-11-24T06:36:31.624Z,96650.84
2017-11-24T06:38:57.746Z,96647.41
2017-11-24T06:41:23.918Z,96645.81
2017-11-24T06:43:50.098Z,96659.20
2017-11-24T06:46:16.242Z,96668.98
2017-11-24T06:48:42.401Z,96667.45
2017-11-24T06:51:08.487Z,96660.70
2017-11-24T06:53:35.202Z,96651.96
2017-11-24T06:56:01.321Z,96643.78
2017-11-24T06:58:27.430Z,96644.16
2017-11-24T07:00:53.542Z,96650.52
2017-11-24T07:03:19.755Z,96660.22
2017-11-24T07:05:45.877Z,96662.53
2017-11-24T07:08:12.004Z,96657.23
2017-11-24T07:10:38.091Z,96652.34
2017-11-24T07:13:04.254Z,96651.44
2017-11-24T07:15:30.345Z,96662.84
2017-11-24T07:17:56.495Z,96668.23
2017-11-24T07:20:22.893Z,96666.56
2017-11-24T07:22:49.034Z,96666.96
2017-11-24T07:25:15.173Z,96666.48
2017-11-24T07:27:41.324Z,96669.46
2017-11-24T07:30:07.463Z,96662.27
2017-11-24T07:32:33.540Z,96659.94
2017-11-24T07:34:59.682Z,96659.36
2017-11-24T07:37:25.873Z,96647.31
2017-11-24T07:39:52.041Z,96639.59
2017-11-24T07:42:18.170Z,96637.47
2017-11-24T07:44:44.298Z,96647.09
2017-11-24T07:47:10.481Z,96641.61
2017-11-24T07:49:36.646Z,96638.59
2017-11-24T07:52:02.782Z,96637.00
2017-11-24T07:54:28.934Z,96640.45
2017-11-24T07:56:54.998Z,96644.91
2017-11-24T07:59:21.116Z,96645.30
2017-11-24T08:01:47.286Z,96653.22
2017-11-24T08:04:13.381Z,96650.70
2017-11-24T08:06:39.481Z,96653.95
2017-11-24T08:09:05.608Z,96663.47
2017-11-24T08:11:31.753Z,96654.92
2017-11-24T08:13:57.874Z,96657.22
2017-11-24T08:16:24.060Z,96653.67
2017-11-24T08:18:50.139Z,96652.31
2017-11-24T08:21:16.221Z,96641.44
2017-11-24T08:23:42.366Z,96638.75
2017-11-24T08:26:08.541Z,96636.52
2017-11-24T08:28:34.642Z,96633.22
2017-11-24T08:31:00.783Z,96634.84
2017-11-24T08:33:26.937Z,96631.00
2017-11-24T08:35:53.019Z,96628.66
2017-11-24T08:38:19.132Z,96618.13
2017-11-24T08:40:45.232Z,96613.41
2017-11-24T08:43:11.285Z,96616.22
2017-11-24T08:45:37.427Z,96623.39
2017-11-24T08:48:09.742Z,96626.51
2017-11-24T08:50:35.902Z,96627.67
2017-11-24T08:53:02.029Z,96619.60
2017-11-24T08:55:28.131Z,96621.34
2017-11-24T08:57:54.698Z,96623.48
2017-11-24T09:00:20.810Z,96627.06
2017-11-24T09:02:46.955Z,96628.67
2017-11-24T09:05:13.138Z,96632.47
2017-11-24T09:07:39.298Z,96632.64
2017-11-24T09:10:05.435Z,96628.28
2017-11-24T09:12:31.576Z,96627.14
2017-11-24T09:14:57.690Z,96619.70
2017-11-24T09:17:23.930Z,96623.78
2017-11-24T09:19:50.101Z,96621.15
2017-11-24T09:22:16.253Z,96627.39
2017-11-24T09:24:43.021Z,96628.32
2017-11-24T09:27:09.101Z,96628.73
2017-11-24T09:29:35.261Z,96626.86
2017-11-24T09:32:01.407Z,96623.69
2017-11-24T09:34:27.521Z,96623.55
2017-11-24T09:36:53.589Z,96633.00
2017-11-24T09:39:19.684Z,96644.30
2017-11-24T09:41:45.817Z,96649.94
2017-11-24T09:44:12.024Z,96650.44
2017-11-24T09:46:38.181Z,96641.33
2017-11-24T09:49:04.321Z,96628.87
2017-11-24T09:51:30.453Z,96630.28
2017-11-24T09:53:56.616Z,96633.54
2017-11-24T09:56:22.741Z,96633.31
2017-11-24T09:58:48.897Z,96631.88
2017-11-24T10:01:15.017Z,96624.56
2017-11-24T10:03:41.135Z,96624.72
2017-11-24T10:06:07.301Z,96623.63
2017-11-24T10:08:33.425Z,96613.59
2017-11-24T10:10:59.840Z,96616.42
2017-11-24T10:13:26.018Z,96607.78
2017-11-24T10:15:52.126Z,96608.58
2017-11-24T10:18:18.297Z,96598.73
2017-11-24T10:20:50.417Z,96596.40
2017-11-24T10:23:16.549Z,96596.75
2017-11-24T10:25:42.753Z,96597.82
2017-11-24T10:28:08.865Z,96583.64
2017-11-24T10:30:34.935Z,96584.78
2017-11-24T10:33:01.040Z,96579.52
2017-11-24T10:35:27.153Z,96575.65
2017-11-24T10:37:53.250Z,96567.95
2017-11-24T10:40:19.737Z,96570.57
2017-11-24T10:42:45.922Z,96577.08
2017-11-24T10:45:12.095Z,96581.43
2017-11-24T10:47:38.216Z,96577.31
2017-11-24T10:50:04.402Z,96582.98
2017-11-24T10:52:30.526Z,96568.45
2017-11-24T10:54:56.682Z,96572.70
2017-11-24T10:57:22.825Z,96563.92
2017-11-24T10:59:48.963Z,96558.23
2017-11-24T11:02:15.068Z,96565.83
2017-11-24T11:04:41.227Z,96555.55
2017-11-24T11:07:07.338Z,96547.08
2017-11-24T11:09:33.782Z,96550.61
2017-11-24T11:11:59.892Z,96554.16
2017-11-24T11:14:26.006Z,96557.20
2017-11-24T11:16:52.149Z,96559.62
2017-11-24T11:19:18.265Z,96552.05
2017-11-24T11:21:44.385Z,96555.65
2017-11-24T11:24:10.553Z,96550.58
2017-11-24T11:26:36.659Z,96540.77
2017-11-24T11:29:02.789Z,96537.52
2017-11-24T11:31:28.914Z,96540.66
2017-11-24T11:33:55.033Z,96536.66
2017-11-24T11:36:21.141Z,96541.84
2017-11-24T11:38:47.288Z,96533.58
2017-11-24T11:41:13.411Z,96536.34
2017-11-24T11:43:39.522Z,96536.67
2017-11-24T11:46:05.633Z,96527.91
2017-11-24T11:48:31.829Z,96528.84
2017-11-24T11:50:57.918Z,96527.47
2017-11-24T11:53:23.954Z,96525.47
2017-11-24T11:55:50.143Z,96530.00
2017-11-24T11:58:16.351Z,96525.56
2017-11-24T12:00:42.513Z,96525.39
2017-11-24T12:03:08.669Z,96522.75
2017-11-24T12:05:34.760Z,96521.67
2017-11-24T12:08:00.916Z,96525.09
2017-11-24T12:10:27.028Z,96516.55
2017-11-24T12:12:53.165Z,96509.44
2017-11-24T12:15:19.297Z,96513.17
2017-11-24T12:17:45.415Z,96507.52
2017-11-24T12:20:11.482Z,96502.03
2017-11-24T12:22:37.638Z,96499.87
2017-11-24T12:25:03.923Z,96494.73
2017-11-24T12:27:30.069Z,96494.94
2017-11-24T12:29:56.238Z,96501.63
2017-11-24T12:32:22.337Z,96492.00
2017-11-24T12:34:48.490Z,96493.57
2017-11-24T12:37:14.605Z,96477.31
2017-11-24T12:39:41.219Z,96483.59
2017-11-24T12:42:07.335Z,96480.13
2017-11-24T12:44:33.478Z,96479.42
2017-11-24T12:46:59.584Z,96479.80
2017-11-24T12:49:25.737Z,96484.30
2017-11-24T12:51:51.868Z,96480.67
2017-11-24T12:54:17.979Z,96478.94
2017-11-24T12:56:44.161Z,96480.81
2017-11-24T12:59:10.377Z,96478.84
2017-11-24T13:01:36.509Z,96477.90
2017-11-24T13:04:02.721Z,96480.09
2017-11-24T13:06:28.885Z,96477.21
2017-11-24T13:08:55.002Z,96490.76
2017-11-24T13:11:21.222Z,96489.00
2017-11-24T13:13:47.293Z,96482.91
2017-11-24T13:16:13.414Z,96481.21
2017-11-24T13:18:39.633Z,96485.00
2017-11-24T13:21:06.587Z,96480.16
2017-11-24T13:23:33.607Z,96482.20
2017-11-24T13:25:59.745Z,96473.23
2017-11-24T13:28:25.891Z,96467.44
2017-11-24T13:30:52.017Z,96465.36
2017-11-24T13:33:18.182Z,96474.03
2017-11-24T13:35:44.337Z,96473.25
2017-11-24T13:38:10.460Z,96475.39
2017-11-24T13:40:36.605Z,96481.88
2017-11-24T13:43:02.741Z,96467.29
2017-11-24T13:45:28.916Z,96463.25
2017-11-24T13:47:55.027Z,96477.43
2017-11-24T13:50:21.142Z,96478.88
2017-11-24T13:52:47.418Z,96475.52
2017-11-24T13:55:13.546Z,96483.46
2017-11-24T13:57:39.673Z,96487.88
2017-11-24T14:00:05.773Z,96496.26
2017-11-24T14:02:31.923Z,96486.05
2017-11-24T14:04:58.433Z,96494.11
2017-11-24T14:07:24.608Z,96499.36
2017-11-24T14:09:50.797Z,96498.61
2017-11-24T14:12:16.997Z,96496.84
2017-11-24T14:14:43.270Z,96500.54
2017-11-24T14:17:09.556Z,96498.28
2017-11-24T14:19:35.741Z,96517.03
2017-11-24T14:22:01.875Z,96517.88
2017-11-24T14:24:28.118Z,96524.61
2017-11-24T14:26:54.334Z,96522.67
2017-11-24T14:29:20.550Z,96521.62
2017-11-24T14:31:46.817Z,96519.16
2017-11-24T14:34:12.950Z,96531.22
2017-11-24T14:36:39.090Z,96527.25
2017-11-24T14:39:06.130Z,96542.77
2017-11-24T14:41:34.713Z,96539.73
2017-11-24T14:44:01.022Z,96534.86
2017-11-24T14:46:27.178Z,96530.84
2017-11-24T14:48:53.300Z,96527.09
2017-11-24T14:51:19.490Z,96522.85
2017-11-24T14:53:45.670Z,96529.64
2017-11-24T14:56:11.829Z,96537.53
2017-11-24T14:58:38.033Z,96531.53
2017-11-24T15:01:04.152Z,96532.98
2017-11-24T15:03:30.379Z,96536.66
2017-11-24T15:05:56.610Z,96539.70
2017-11-24T15:08:22.782Z,96541.73
2017-11-24T15:10:48.971Z,96548.33
2017-11-24T15:13:15.108Z,96537.92
2017-11-24T15:15:41.373Z,96536.34
2017-11-24T15:18:07.490Z,96535.08
2017-11-24T15:20:33.738Z,96540.60
2017-11-24T15:22:59.884Z,96542.59
2017-11-24T15:25:26.030Z,96545.69
2017-11-24T15:27:52.170Z,96537.44
2017-11-24T15:30:18.387Z,96538.02
2017-11-24T15:32:44.634Z,96536.79
2017-11-24T15:35:10.986Z,96535.63
2017-11-24T15:37:37.214Z,96544.67
2017-11-24T15:40:03.634Z,96539.00
2017-11-24T15:42:29.772Z,96546.72
2017-11-24T15:44:55.934Z,96544.84
2017-11-24T15:47:22.133Z,96542.59
2017-11-24T15:49:48.298Z,96550.67
2017-11-24T15:52:14.797Z,96547.55
2017-11-24T15:54:40.946Z,96551.02
2017-11-24T15:57:07.186Z,96550.55
2017-11-24T15:59:33.769Z,96542.98
2017-11-24T16:01:59.870Z,96556.55
2017-11-24T16:04:26.001Z,96555.63
2017-11-24T16:06:52.173Z,96557.36
2017-11-24T16:09:18.489Z,96561.38
2017-11-24T16:11:44.653Z,96560.04
2017-11-24T16:14:10.813Z,96560.55
2017-11-24T16:16:37.738Z,96563.33
2017-11-24T16:19:03.923Z,96557.77
2017-11-24T16:21:30.104Z,96552.13
2017-11-24T16:23:56.295Z,96548.73
2017-11-24T16:26:22.466Z,96537.49
2017-11-24T16:28:48.999Z,96541.73
2017-11-24T16:31:15.137Z,96541.39
2017-11-24T16:33:41.270Z,96539.36
2017-11-24T16:36:08.395Z,96536.56
2017-11-24T16:38:34.581Z,96534.47
2017-11-24T16:41:00.740Z,96539.98
2017-11-24T16:43:26.896Z,96540.14
2017-11-24T16:45:53.054Z,96537.09
2017-11-24T16:48:19.324Z,96540.19
2017-11-24T16:50:45.443Z,96540.53
2017-11-24T16:53:11.598Z,96542.28
2017-11-24T16:55:37.723Z,96547.62
2017-11-24T16:58:03.898Z,96551.44
2017-11-24T17:00:30.066Z,96558.97
2017-11-24T17:02:56.191Z,96556.45
2017-11-24T17:05:22.412Z,96562.03
2017-11-24T17:07:48.606Z,96564.91
2017-11-24T17:10:14.825Z,96559.97
2017-11-24T17:12:41.845Z,96564.58
2017-11-24T17:15:08.026Z,96564.25
2017-11-24T17:17:34.211Z,96565.58
2017-11-24T17:20:00.427Z,96568.00
2017-11-24T17:22:26.563Z,96561.88
2017-11-24T17:24:52.644Z,96568.70
2017-11-24T17:27:18.842Z,96565.37
2017-11-24T17:29:45.014Z,96564.79
2017-11-24T17:32:11.169Z,96560.62
2017-11-24T17:34:37.360Z,96550.03
2017-11-24T17:37:03.486Z,96547.36
2017-11-24T17:39:29.641Z,96556.77
2017-11-24T17:41:55.774Z,96557.74
2017-11-24T17:44:21.948Z,96561.26
2017-11-24T17:46:48.086Z,96550.63
2017-11-24T17:49:14.213Z,96552.97
2017-11-24T17:51:40.361Z,96568.55
2017-11-24T17:54:06.549Z,96565.20
2017-11-24T17:56:32.889Z,96579.63
2017-11-24T17:58:58.959Z,96580.95
2017-11-24T18:01:25.169Z,96588.89
2017-11-24T18:03:51.300Z,96594.75
2017-11-24T18:06:17.436Z,96602.16
2017-11-24T18:08:43.574Z,96590.02
2017-11-24T18:11:09.721Z,96592.47
2017-11-24T18:13:35.870Z,96595.77
2017-11-24T18:16:02.025Z,96598.43
2017-11-24T18:18:28.202Z,96600.44
2017-11-24T18:20:54.365Z,96598.51
2017-11-24T18:23:20.563Z,96595.28
2017-11-24T18:25:46.838Z,96602.33
2017-11-24T18:28:13.032Z,96609.46
2017-11-24T18:30:39.238Z,96613.20
2017-11-24T18:33:05.462Z,96613.11
2017-11-24T18:35:31.627Z,96605.84
2017-11-24T18:37:57.754Z,96607.99
2017-11-24T18:40:23.889Z,96604.49
2017-11-24T18:42:50.071Z,96596.70
2017-11-24T18:45:16.276Z,96606.05
2017-11-24T18:47:42.488Z,96601.76
2017-11-24T18:50:08.661Z,96606.85
2017-11-24T18:52:34.762Z,96608.22
2017-11-24T18:55:00.940Z,96607.84
2017-11-24T18:57:27.072Z,96605.52
2017-11-24T18:59:53.288Z,96598.03
2017-11-24T19:02:22.410Z,96604.70
2017-11-24T19:04:48.625Z,96603.67
2017-11-24T19:07:14.807Z,96594.22
2017-11-24T19:09:40.965Z,96594.36
2017-11-24T19:12:07.308Z,96592.63
2017-11-24T19:14:33.671Z,96594.75
2017-11-24T19:16:59.814Z,96587.78
2017-11-24T19:19:26.009Z,96591.08
2017-11-24T19:21:52.184Z,96592.16
2017-11-24T19:24:18.324Z,96588.89
2017-11-24T19:26:44.516Z,96580.69
2017-11-24T19:29:10.698Z,96567.18
2017-11-24T19:31:36.816Z,96567.19
2017-11-24T19:34:03.013Z,96584.11
2017-11-24T19:36:29.117Z,96600.25
2017-11-24T19:38:55.284Z,96610.18
2017-11-24T19:41:21.473Z,96606.36
2017-11-24T19:43:47.624Z,96610.00
2017-11-24T19:46:13.813Z,96609.61
2017-11-24T19:48:39.995Z,96610.70
2017-11-24T19:51:06.125Z,96611.95
2017-11-24T19:53:32.341Z,96611.66
2017-11-24T19:55:58.535Z,96614.04
2017-11-24T19:58:24.665Z,96615.91
2017-11-24T20:00:50.898Z,96622.44
2017-11-24T20:03:17.062Z,96618.92
2017-11-24T20:05:43.358Z,96610.70
2017-11-24T20:08:10.467Z,96616.44
2017-11-24T20:10:36.657Z,96613.95
2017-11-24T20:13:02.844Z,96618.05
2017-11-24T20:15:29.081Z,96619.54
2017-11-24T20:17:55.404Z,96621.06
2017-11-24T20:20:21.723Z,96609.72
2017-11-24T20:22:48.010Z,96610.64
2017-11-24T20:25:14.271Z,96617.55
2017-11-24T20:27:41.067Z,96617.16
2017-11-24T20:30:07.363Z,96619.88
2017-11-24T20:32:35.339Z,96613.59
2017-11-24T20:35:02.584Z,96609.84
2017-11-24T20:37:28.945Z,96611.16
2017-11-24T20:39:55.196Z,96606.11
2017-11-24T20:42:21.427Z,96602.47
2017-11-24T20:44:47.752Z,96602.23
2017-11-24T20:47:13.874Z,96602.55
2017-11-24T20:49:40.066Z,96607.00
2017-11-24T20:52:06.353Z,96604.36
2017-11-24T20:54:32.680Z,96608.16
2017-11-24T20:56:59.042Z,96608.94
2017-11-24T20:59:25.252Z,96615.50
2017-11-24T21:01:51.496Z,96608.05
2017-11-24T21:04:17.731Z,96605.96
2017-11-24T21:06:45.407Z,96610.30
2017-11-24T21:09:11.564Z,96604.18
2017-11-24T21:11:37.812Z,96605.32
2017-11-24T21:14:04.053Z,96603.97
2017-11-24T21:16:30.272Z,96594.20
2017-11-24T21:18:56.474Z,96596.92
2017-11-24T21:21:22.591Z,96597.54
2017-11-24T21:23:48.746Z,96601.50
2017-11-24T21:26:15.217Z,96601.03
2017-11-24T21:28:41.342Z,96600.77
2017-11-24T21:31:07.583Z,96591.16
2017-11-24T21:33:33.701Z,96590.38
2017-11-24T21:36:00.705Z,96594.48
2017-11-24T21:38:26.919Z,96600.61
2017-11-24T21:40:53.098Z,96605.95
2017-11-24T21:43:19.297Z,96592.59
2017-11-24T21:45:45.408Z,96598.48
2017-11-24T21:48:11.549Z,96600.27
2017-11-24T21:50:37.947Z,96596.23
2017-11-24T21:53:04.085Z,96601.66
2017-11-24T21:55:30.209Z,96604.52
2017-11-24T21:57:56.329Z,96604.28
2017-11-24T22:00:22.534Z,96608.39
2017-11-24T22:02:48.665Z,96604.30
2017-11-24T22:05:14.800Z,96609.02
2017-11-24T22:07:41.160Z,96607.89
2017-11-24T22:10:07.223Z,96612.47
2017-11-24T22:12:33.306Z,96613.32
2017-11-24T22:14:59.426Z,96615.56
2017-11-24T22:17:25.563Z,96608.23
2017-11-24T22:19:51.694Z,96619.09
2017-11-24T22:22:17.908Z,96614.05
2017-11-24T22:24:44.017Z,96614.03
2017-11-24T22:27:10.089Z,96613.56
2017-11-24T22:29:36.257Z,96608.77
2017-11-24T22:32:02.421Z,96616.06
2017-11-24T22:34:28.653Z,96611.41
2017-11-24T22:36:54.812Z,96606.61
2017-11-24T22:39:20.974Z,96600.31
2017-11-24T22:41:47.213Z,96603.58
2017-11-24T22:44:13.317Z,96604.42
2017-11-24T22:46:39.490Z,96601.64
2017-11-24T22:49:05.638Z,96602.03
2017-11-24T22:51:31.756Z,96602.66
2017-11-24T22:53:57.913Z,96593.64
2017-11-24T22:56:24.037Z,96582.32
2017-11-24T22:58:50.245Z,96584.56
2017-11-24T23:01:16.402Z,96594.81
2017-11-24T23:03:42.593Z,96585.56
2017-11-24T23:06:08.810Z,96588.52
2017-11-24T23:08:34.946Z,96588.45
2017-11-24T23:11:01.094Z,96590.38
2017-11-24T23:13:27.196Z,96591.78
2017-11-24T23:15:53.315Z,96590.54
2017-11-24T23:18:19.484Z,96585.81
2017-11-24T23:20:45.590Z,96577.81
2017-11-24T23:23:11.723Z,96571.69
2017-11-24T23:25:37.865Z,96569.91
2017-11-24T23:28:03.982Z,96575.80
2017-11-24T23:30:30.126Z,96573.70
2017-11-24T23:32:56.299Z,96570.28
2017-11-24T23:35:22.555Z,96574.55
2017-11-24T23:37:48.662Z,96570.82
2017-11-24T23:40:14.817Z,96564.23
2017-11-24T23:42:40.983Z,96552.34
2017-11-24T23:45:07.087Z,96543.98
2017-11-24T23:47:33.218Z,96540.81
2017-11-24T23:49:59.333Z,96546.92
2017-11-24T23:52:25.487Z,96543.45
2017-11-24T23:54:51.630Z,96542.83
2017-11-24T23:57:17.737Z,96531.73
2017-11-24T23:59:43.861Z,96538.78
